Time;durP1;ratioP1;P1;durP2;ratioP2;P2;SDS_P1;SDS_P2;PMS_P1;PMS_P2;Temp;Humidity;BMP_temperature;BMP_pressure;BME280_temperature;BME280_humidity;BME280_pressure;Samples;Min_cycle;Max_cycle;Signal;HPM_P1;HPM_P2
2021/06/22 00:00:36;;;;;;;6.10;5.10;;;24.90;99.90;;;;;;4947567;29;20586;-84
2021/06/22 00:03:02;;;;;;;8.47;5.93;;;24.70;99.90;;;;;;4966383;29;20184;-85
2021/06/22 00:05:30;;;;;;;6.60;5.13;;;24.90;99.90;;;;;;4970252;29;20392;-82
2021/06/22 00:07:56;;;;;;;5.73;5.00;;;25.00;99.90;;;;;;4968574;29;20172;-85
2021/06/22 00:10:27;;;;;;;9.90;4.90;;;24.90;99.90;;;;;;4968602;29;20510;-84
2021/06/22 00:12:53;;;;;;;7.40;5.20;;;24.80;99.90;;;;;;4933909;29;20446;-84
2021/06/22 00:15:21;;;;;;;9.77;5.20;;;24.50;99.90;;;;;;4963990;29;20442;-84
2021/06/22 00:17:47;;;;;;;6.27;4.80;;;24.40;99.90;;;;;;4932661;29;20459;-84
2021/06/22 00:20:14;;;;;;;8.43;5.30;;;24.40;99.90;;;;;;4965932;29;20422;-84
2021/06/22 00:22:41;;;;;;;7.67;5.33;;;24.60;99.90;;;;;;4965257;29;20804;-84
2021/06/22 00:25:09;;;;;;;9.00;5.90;;;24.70;99.90;;;;;;4950541;28;20782;-84
2021/06/22 00:27:34;;;;;;;6.80;5.40;;;24.80;99.90;;;;;;4961485;29;20419;-84
2021/06/22 00:30:00;;;;;;;8.60;5.57;;;24.90;99.90;;;;;;4962325;29;20420;-83
2021/06/22 00:32:25;;;;;;;7.70;4.80;;;25.00;99.90;;;;;;4944853;29;20215;-83
2021/06/22 00:34:51;;;;;;;6.40;5.73;;;25.10;99.90;;;;;;4961089;29;20423;-83
2021/06/22 00:37:18;;;;;;;6.13;5.43;;;25.10;99.90;;;;;;4944767;29;20180;-85
2021/06/22 00:39:45;;;;;;;6.00;4.70;;;24.90;99.90;;;;;;4946967;29;20711;-84
2021/06/22 00:42:11;;;;;;;8.33;5.90;;;24.70;99.90;;;;;;4962542;29;20454;-84
2021/06/22 00:44:48;;;;;;;9.60;5.80;;;24.60;99.90;;;;;;4961331;29;20412;-84
2021/06/22 00:47:17;;;;;;;8.13;6.27;;;24.20;99.90;;;;;;4928898;29;20838;-85
2021/06/22 00:49:43;;;;;;;6.33;5.70;;;24.30;99.90;;;;;;4960276;29;20412;-84
2021/06/22 00:52:09;;;;;;;7.83;6.33;;;24.20;99.90;;;;;;4960080;29;20415;-85
2021/06/22 00:54:36;;;;;;;7.07;6.37;;;23.90;99.90;;;;;;4960463;29;20764;-85
2021/06/22 00:57:08;;;;;;;8.10;6.27;;;23.30;99.90;;;;;;4944403;29;20184;-84
2021/06/22 00:59:35;;;;;;;8.17;6.90;;;23.50;99.90;;;;;;4961996;29;20675;-85
2021/06/22 01:02:07;;;;;;;9.07;6.13;;;23.10;99.90;;;;;;4963841;29;20479;-85
2021/06/22 01:04:33;;;;;;;6.13;5.43;;;23.10;99.90;;;;;;4965025;29;20416;-83
2021/06/22 01:07:01;;;;;;;8.37;6.53;;;23.30;99.90;;;;;;4947617;29;20443;-84
2021/06/22 01:09:28;;;;;;;6.77;6.07;;;23.60;99.90;;;;;;4964556;29;20816;-85
2021/06/22 01:11:55;;;;;;;6.97;5.87;;;24.00;99.90;;;;;;4946315;29;20458;-84
2021/06/22 01:14:20;;;;;;;6.43;5.87;;;24.30;99.90;;;;;;4947460;29;20440;-85
2021/06/22 01:16:46;;;;;;;7.70;6.20;;;24.50;99.90;;;;;;4945411;29;20911;-84
2021/06/22 01:19:13;;;;;;;7.80;5.87;;;24.10;99.90;;;;;;4967249;29;20211;-84
2021/06/22 01:21:38;;;;;;;8.83;6.33;;;24.20;99.90;;;;;;4964925;29;20251;-83
2021/06/22 01:24:09;;;;;;;6.77;5.80;;;23.70;99.90;;;;;;4966043;29;20444;-83
2021/06/22 01:26:38;;;;;;;5.30;4.80;;;23.50;99.90;;;;;;4968145;29;20180;-84
2021/06/22 01:29:05;;;;;;;6.90;4.90;;;23.80;99.90;;;;;;4949029;29;20487;-84
2021/06/22 01:31:31;;;;;;;7.53;6.30;;;24.20;99.90;;;;;;4946461;29;20898;-84
2021/06/22 01:33:56;;;;;;;5.33;4.83;;;24.20;99.90;;;;;;4962977;29;20440;-85
2021/06/22 01:36:22;;;;;;;7.97;6.90;;;24.30;99.90;;;;;;4966158;29;20946;-84
2021/06/22 01:38:49;;;;;;;8.70;6.07;;;24.30;99.90;;;;;;4969682;28;20207;-83
2021/06/22 01:41:17;;;;;;;7.03;5.13;;;23.50;99.90;;;;;;4949212;29;20415;-83
2021/06/22 01:43:43;;;;;;;9.10;6.00;;;24.00;99.90;;;;;;4963704;29;20805;-83
2021/06/22 01:46:08;;;;;;;8.93;5.83;;;24.10;99.90;;;;;;4950866;29;20435;-83
2021/06/22 01:48:34;;;;;;;6.80;5.37;;;24.00;99.90;;;;;;4955208;29;20180;-82
2021/06/22 01:50:59;;;;;;;6.93;6.20;;;24.00;99.90;;;;;;4974761;29;20263;-82
2021/06/22 01:53:25;;;;;;;7.77;6.23;;;23.70;99.90;;;;;;4977675;28;20243;-83
2021/06/22 01:55:52;;;;;;;8.93;6.37;;;23.60;99.90;;;;;;4977770;28;20299;-81
2021/06/22 01:58:19;;;;;;;6.70;5.90;;;23.50;99.90;;;;;;4960554;28;20208;-82
2021/06/22 02:00:48;;;;;;;10.33;6.90;;;23.50;99.90;;;;;;4979427;28;20408;-81
2021/06/22 02:03:16;;;;;;;7.77;6.40;;;23.30;99.90;;;;;;4976981;28;20431;-81
2021/06/22 02:05:43;;;;;;;7.63;6.93;;;23.50;99.90;;;;;;4944943;28;20492;-82
2021/06/22 02:08:10;;;;;;;11.00;7.47;;;23.30;99.90;;;;;;4960928;28;20423;-82
2021/06/22 02:10:36;;;;;;;7.53;5.13;;;23.00;99.90;;;;;;4972666;28;20434;-84
2021/06/22 02:13:03;;;;;;;9.50;6.13;;;23.20;99.90;;;;;;4942708;29;20439;-83
2021/06/22 02:15:29;;;;;;;6.87;5.20;;;22.90;99.90;;;;;;4958457;29;20447;-82
2021/06/22 02:17:55;;;;;;;9.63;5.93;;;23.60;99.90;;;;;;4958245;29;21028;-83
2021/06/22 02:20:20;;;;;;;8.67;5.87;;;23.90;99.90;;;;;;4942178;29;20431;-82
2021/06/22 02:22:47;;;;;;;9.50;6.60;;;24.00;99.90;;;;;;4966953;29;20203;-84
2021/06/22 02:25:13;;;;;;;8.90;5.93;;;23.90;99.90;;;;;;4962859;29;20200;-82
2021/06/22 02:27:39;;;;;;;8.40;5.90;;;23.80;99.90;;;;;;4959949;29;20404;-83
2021/06/22 02:30:09;;;;;;;10.60;6.50;;;23.90;99.90;;;;;;4945656;29;20215;-85
2021/06/22 02:32:35;;;;;;;10.97;7.00;;;22.90;99.90;;;;;;4966841;29;20435;-83
2021/06/22 02:35:01;;;;;;;9.30;6.73;;;22.80;99.90;;;;;;4964659;29;20411;-84
2021/06/22 02:37:27;;;;;;;9.83;6.63;;;22.70;99.90;;;;;;4960740;29;20407;-84
2021/06/22 02:39:52;;;;;;;7.87;5.90;;;22.90;99.90;;;;;;4962629;29;20370;-85
2021/06/22 02:42:18;;;;;;;9.30;7.07;;;22.80;99.90;;;;;;4946290;29;20199;-85
2021/06/22 02:44:44;;;;;;;9.80;6.13;;;22.50;99.90;;;;;;4948572;29;20208;-84
2021/06/22 02:47:13;;;;;;;12.37;6.90;;;22.60;99.90;;;;;;4940653;29;20195;-83
2021/06/22 02:49:39;;;;;;;6.50;5.90;;;23.10;99.90;;;;;;4952753;29;20508;-86
2021/06/22 02:52:05;;;;;;;9.40;5.43;;;22.80;99.90;;;;;;4962439;29;20443;-85
2021/06/22 02:54:33;;;;;;;7.80;6.07;;;23.20;99.90;;;;;;4976914;28;20160;-83
2021/06/22 02:56:59;;;;;;;8.27;6.23;;;23.40;99.90;;;;;;4971714;29;20416;-85
2021/06/22 02:59:24;;;;;;;9.90;4.73;;;23.40;99.90;;;;;;4962913;29;20490;-85
2021/06/22 03:01:50;;;;;;;7.63;6.80;;;23.40;99.90;;;;;;4944842;29;20183;-85
2021/06/22 03:04:18;;;;;;;8.93;5.83;;;23.10;99.90;;;;;;4944668;29;20192;-85
2021/06/22 03:06:44;;;;;;;9.10;6.10;;;22.80;99.90;;;;;;4960780;29;20207;-85
2021/06/22 03:09:09;;;;;;;10.03;6.40;;;23.00;99.90;;;;;;4961059;29;20770;-85
2021/06/22 03:11:35;;;;;;;8.60;6.23;;;22.60;99.90;;;;;;4944235;29;20192;-85
2021/06/22 03:14:00;;;;;;;9.77;6.30;;;22.40;99.90;;;;;;4946475;29;20212;-85
2021/06/22 03:16:26;;;;;;;6.93;6.23;;;22.20;99.90;;;;;;4945546;29;20249;-85
2021/06/22 03:18:51;;;;;;;9.13;6.40;;;22.40;99.90;;;;;;4944898;29;20663;-86
2021/06/22 03:21:17;;;;;;;9.67;7.13;;;21.80;99.90;;;;;;4942935;29;20172;-85
2021/06/22 03:23:43;;;;;;;6.40;5.80;;;21.50;99.90;;;;;;4960219;29;20188;-85
2021/06/22 03:26:08;;;;;;;7.63;6.07;;;21.40;99.90;;;;;;4942113;29;20183;-85
2021/06/22 03:28:34;;;;;;;9.30;6.60;;;21.90;99.90;;;;;;4960316;29;20188;-86
2021/06/22 03:30:59;;;;;;;9.03;7.07;;;21.80;99.90;;;;;;4943768;29;20195;-86
2021/06/22 03:33:25;;;;;;;7.03;5.80;;;22.20;99.90;;;;;;4944465;29;20224;-85
2021/06/22 03:35:51;;;;;;;9.20;6.20;;;22.30;99.90;;;;;;4941724;29;20199;-85
2021/06/22 03:38:17;;;;;;;10.90;6.10;;;22.90;99.90;;;;;;4943056;29;20475;-85
2021/06/22 03:40:42;;;;;;;8.60;4.67;;;23.00;99.90;;;;;;4960373;29;20196;-85
2021/06/22 03:43:08;;;;;;;6.60;5.17;;;23.10;99.90;;;;;;4960451;29;20192;-85
2021/06/22 03:45:33;;;;;;;7.40;4.80;;;23.60;99.90;;;;;;4944267;29;20186;-85
2021/06/22 03:47:59;;;;;;;6.87;5.77;;;23.90;99.90;;;;;;4943723;29;20180;-84
2021/06/22 03:50:24;;;;;;;7.20;6.37;;;23.90;99.90;;;;;;4960273;29;20168;-85
2021/06/22 03:52:50;;;;;;;10.30;6.77;;;23.50;99.90;;;;;;4942998;29;20199;-85
2021/06/22 03:55:29;;;;;;;9.40;6.10;;;23.40;99.90;;;;;;4959781;29;20274;-85
2021/06/22 03:58:00;;;;;;;7.00;6.30;;;22.80;99.90;;;;;;4960035;29;20267;-85
2021/06/22 04:00:26;;;;;;;6.63;5.70;;;22.50;99.90;;;;;;4959835;28;20408;-85
2021/06/22 04:02:54;;;;;;;9.70;6.90;;;22.40;99.90;;;;;;4945640;29;20450;-85
2021/06/22 04:05:19;;;;;;;8.80;6.13;;;21.80;99.90;;;;;;4930563;29;20459;-84
2021/06/22 04:07:46;;;;;;;7.73;6.17;;;21.70;99.90;;;;;;4948635;29;20416;-86
2021/06/22 04:10:13;;;;;;;7.00;6.07;;;22.00;99.90;;;;;;4950398;29;20187;-86
2021/06/22 04:12:38;;;;;;;8.90;6.70;;;22.50;99.90;;;;;;4967938;29;20435;-85
2021/06/22 04:15:05;;;;;;;9.43;8.37;;;22.00;99.90;;;;;;4972031;29;20460;-86
2021/06/22 04:17:30;;;;;;;9.60;7.33;;;21.80;99.90;;;;;;4964049;29;20251;-84
2021/06/22 04:19:56;;;;;;;11.03;7.50;;;21.70;99.90;;;;;;4963715;29;20467;-86
2021/06/22 04:22:21;;;;;;;12.53;6.70;;;21.70;99.90;;;;;;4945674;29;20211;-85
2021/06/22 04:24:47;;;;;;;11.33;7.27;;;21.50;99.90;;;;;;4962704;29;20667;-86
2021/06/22 04:27:12;;;;;;;8.33;7.00;;;21.60;99.90;;;;;;4946176;29;20662;-86
2021/06/22 04:29:38;;;;;;;10.87;7.67;;;21.90;99.90;;;;;;4946399;29;20244;-85
2021/06/22 04:32:04;;;;;;;10.83;7.17;;;21.80;99.90;;;;;;4945928;29;20266;-85
2021/06/22 04:34:30;;;;;;;8.33;6.23;;;21.90;99.90;;;;;;4963796;29;20168;-85
2021/06/22 04:36:55;;;;;;;7.93;6.37;;;22.40;99.90;;;;;;4963950;29;20443;-86
2021/06/22 04:39:21;;;;;;;7.03;5.57;;;22.40;99.90;;;;;;4966253;29;20222;-85
2021/06/22 04:41:46;;;;;;;9.80;5.60;;;22.70;99.90;;;;;;4947551;29;20178;-85
2021/06/22 04:44:12;;;;;;;8.43;6.83;;;23.00;99.90;;;;;;4947684;29;20571;-87
2021/06/22 04:46:38;;;;;;;9.40;5.90;;;23.00;99.90;;;;;;4963210;29;20172;-86
2021/06/22 04:49:06;;;;;;;5.73;5.00;;;23.20;99.90;;;;;;4943926;29;20672;-84
2021/06/22 04:51:32;;;;;;;11.80;6.80;;;23.50;99.90;;;;;;4945879;29;20200;-86
2021/06/22 04:54:01;;;;;;;8.60;6.20;;;23.60;99.90;;;;;;4963179;29;20763;-85
2021/06/22 04:56:26;;;;;;;8.10;6.80;;;23.50;99.90;;;;;;4947246;29;20250;-85
2021/06/22 04:58:55;;;;;;;9.83;6.67;;;23.50;99.90;;;;;;4946482;29;21104;-86
2021/06/22 05:01:21;;;;;;;14.60;8.50;;;23.80;99.90;;;;;;4962771;29;20250;-84
2021/06/22 05:03:46;;;;;;;13.53;8.53;;;23.50;99.90;;;;;;4965715;29;20431;-85
2021/06/22 05:06:12;;;;;;;10.67;8.17;;;23.30;99.90;;;;;;4947025;29;20424;-85
2021/06/22 05:08:39;;;;;;;11.47;8.07;;;23.40;99.90;;;;;;4963725;29;20176;-85
2021/06/22 05:11:07;;;;;;;9.43;6.37;;;23.60;99.90;;;;;;4958528;29;20435;-86
2021/06/22 05:13:34;;;;;;;11.67;8.77;;;23.60;99.90;;;;;;4946591;29;20772;-86
2021/06/22 05:16:00;;;;;;;11.50;8.33;;;23.80;99.90;;;;;;4946136;29;20849;-85
2021/06/22 05:18:26;;;;;;;14.60;9.10;;;23.90;99.90;;;;;;4925867;29;20567;-84
2021/06/22 05:20:52;;;;;;;22.00;12.20;;;23.80;99.90;;;;;;4946724;29;20455;-85
2021/06/22 05:23:18;;;;;;;12.83;8.80;;;23.40;99.90;;;;;;4953114;29;20444;-85
2021/06/22 05:25:44;;;;;;;15.47;10.17;;;23.70;99.90;;;;;;4940960;29;20184;-85
2021/06/22 05:28:09;;;;;;;20.90;10.90;;;23.80;99.90;;;;;;4941348;29;20212;-81
2021/06/22 05:30:35;;;;;;;18.47;12.17;;;23.90;99.90;;;;;;4960228;29;20720;-83
2021/06/22 05:33:01;;;;;;;13.67;10.10;;;23.50;99.90;;;;;;4955326;29;20464;-84
2021/06/22 05:35:27;;;;;;;13.17;8.67;;;23.60;99.90;;;;;;4954840;29;20184;-86
2021/06/22 05:37:52;;;;;;;17.37;11.53;;;23.80;99.90;;;;;;4925314;29;20423;-84
2021/06/22 05:40:18;;;;;;;16.40;10.33;;;23.30;99.90;;;;;;4950140;29;20173;-83
2021/06/22 05:42:44;;;;;;;18.43;11.20;;;23.50;99.90;;;;;;4940468;29;20681;-84
2021/06/22 05:45:10;;;;;;;15.40;10.23;;;23.60;99.90;;;;;;4937268;29;20184;-84
2021/06/22 05:47:35;;;;;;;24.60;13.10;;;23.60;99.90;;;;;;4960512;29;20584;-84
2021/06/22 05:50:03;;;;;;;21.77;13.83;;;23.70;99.90;;;;;;4961335;29;20435;-84
2021/06/22 05:52:28;;;;;;;17.33;11.73;;;23.50;99.90;;;;;;4961440;29;20263;-83
2021/06/22 05:54:54;;;;;;;28.83;12.97;;;22.60;99.90;;;;;;4929056;29;20478;-84
2021/06/22 05:57:19;;;;;;;17.97;10.73;;;22.50;99.90;;;;;;4944883;29;20183;-84
2021/06/22 05:59:45;;;;;;;16.23;10.47;;;22.50;99.90;;;;;;4961035;29;20212;-84
2021/06/22 06:02:10;;;;;;;17.17;9.60;;;22.60;99.90;;;;;;4928685;29;20271;-83
2021/06/22 06:04:36;;;;;;;12.27;8.97;;;22.40;99.90;;;;;;4944768;29;20184;-84
2021/06/22 06:07:01;;;;;;;12.93;8.13;;;21.60;99.90;;;;;;4963601;29;20184;-84
2021/06/22 06:09:27;;;;;;;12.93;8.30;;;21.60;99.90;;;;;;4964462;29;20215;-82
2021/06/22 06:11:53;;;;;;;10.40;7.10;;;21.40;99.90;;;;;;4955603;28;20180;-80
2021/06/22 06:14:19;;;;;;;16.00;7.57;;;21.50;99.90;;;;;;4969387;28;20172;-80
2021/06/22 06:16:44;;;;;;;12.33;6.07;;;21.30;99.90;;;;;;4959715;28;20259;-80
2021/06/22 06:19:10;;;;;;;13.70;6.50;;;21.50;99.90;;;;;;4961777;28;20521;-80
2021/06/22 06:21:38;;;;;;;11.00;8.00;;;22.30;99.90;;;;;;4978525;28;20600;-82
2021/06/22 06:24:06;;;;;;;13.70;8.60;;;22.50;99.90;;;;;;4979010;28;20198;-79
2021/06/22 06:26:38;;;;;;;9.20;5.10;;;22.30;99.90;;;;;;4961929;28;20416;-80
2021/06/22 06:29:15;;;;;;;12.40;5.30;;;22.40;99.90;;;;;;4979994;28;20403;-80
2021/06/22 06:31:45;;;;;;;7.73;5.90;;;22.80;99.90;;;;;;4943661;29;20435;-85
2021/06/22 06:34:10;;;;;;;14.27;5.20;;;22.70;99.90;;;;;;4950173;29;20435;-84
2021/06/22 06:36:36;;;;;;;7.20;5.20;;;22.90;99.90;;;;;;4960571;29;20745;-82
2021/06/22 06:39:01;;;;;;;10.73;6.83;;;23.20;99.90;;;;;;4959765;29;20223;-84
2021/06/22 06:41:30;;;;;;;12.17;6.30;;;22.30;99.90;;;;;;4943307;29;20246;-83
2021/06/22 06:43:56;;;;;;;14.43;8.60;;;22.00;99.90;;;;;;4942432;29;20557;-82
2021/06/22 06:46:21;;;;;;;14.63;8.07;;;21.70;99.90;;;;;;4940575;29;20455;-81
2021/06/22 06:48:47;;;;;;;14.63;7.57;;;21.50;99.90;;;;;;4957583;29;20188;-82
2021/06/22 06:51:12;;;;;;;11.53;6.90;;;21.70;99.90;;;;;;4957346;29;20549;-83
2021/06/22 06:53:38;;;;;;;11.00;6.97;;;21.80;99.90;;;;;;4955162;29;20209;-78
2021/06/22 06:56:04;;;;;;;8.93;6.10;;;22.00;99.90;;;;;;4951600;29;20188;-80
2021/06/22 06:58:29;;;;;;;8.50;5.73;;;22.30;99.90;;;;;;4930442;29;20212;-79
2021/06/22 07:00:55;;;;;;;7.20;5.60;;;22.40;99.90;;;;;;4953857;29;20222;-79
2021/06/22 07:03:20;;;;;;;8.53;4.90;;;22.40;99.90;;;;;;4953219;29;20566;-79
2021/06/22 07:05:46;;;;;;;7.50;4.57;;;22.40;99.90;;;;;;4936333;29;20172;-78
2021/06/22 07:08:11;;;;;;;8.60;4.83;;;22.60;99.90;;;;;;4954409;29;20671;-80
2021/06/22 07:10:38;;;;;;;7.73;4.47;;;22.90;99.90;;;;;;4954918;29;20176;-78
2021/06/22 07:13:11;;;;;;;7.10;4.07;;;23.10;99.90;;;;;;4936565;29;20644;-80
2021/06/22 07:15:37;;;;;;;4.00;3.10;;;23.40;99.90;;;;;;4954073;29;20483;-78
2021/06/22 07:18:02;;;;;;;4.27;3.23;;;23.50;99.90;;;;;;4953712;29;20491;-80
2021/06/22 07:20:28;;;;;;;8.10;3.57;;;23.30;99.90;;;;;;4953917;29;20180;-79
2021/06/22 07:22:54;;;;;;;6.30;3.70;;;22.30;99.90;;;;;;4954197;28;20192;-78
2021/06/22 07:25:20;;;;;;;3.70;3.30;;;22.20;99.90;;;;;;4953770;29;20180;-78
2021/06/22 07:27:46;;;;;;;4.90;3.40;;;22.00;99.90;;;;;;4937339;29;20659;-78
2021/06/22 07:30:15;;;;;;;4.90;3.37;;;21.50;99.90;;;;;;4953988;29;20482;-78
2021/06/22 07:32:41;;;;;;;4.77;3.47;;;21.50;99.90;;;;;;4953884;29;20443;-78
2021/06/22 07:35:07;;;;;;;5.10;3.80;;;21.50;99.90;;;;;;4955613;28;20466;-79
2021/06/22 07:37:32;;;;;;;2.97;2.67;;;21.60;99.90;;;;;;4957774;29;20190;-80
2021/06/22 07:39:58;;;;;;;6.00;4.80;;;21.40;99.90;;;;;;4958720;29;20494;-78
2021/06/22 07:42:23;;;;;;;10.07;5.20;;;20.80;99.90;;;;;;4957927;28;20279;-79
2021/06/22 07:44:49;;;;;;;6.33;4.00;;;21.20;99.90;;;;;;4932364;29;20202;-78
2021/06/22 07:47:14;;;;;;;6.47;4.40;;;21.40;99.90;;;;;;4938628;29;20529;-78
2021/06/22 07:49:40;;;;;;;6.00;4.17;;;21.60;99.90;;;;;;4948052;29;20308;-78
2021/06/22 07:52:06;;;;;;;5.47;4.33;;;21.90;99.90;;;;;;4943912;29;20284;-78
2021/06/22 07:54:32;;;;;;;5.67;4.17;;;22.10;99.90;;;;;;4938960;29;20661;-77
2021/06/22 07:56:58;;;;;;;4.10;3.40;;;22.40;99.90;;;;;;4939198;29;20411;-78
2021/06/22 07:59:23;;;;;;;4.27;3.83;;;22.80;99.90;;;;;;4939693;29;20210;-78
2021/06/22 08:01:49;;;;;;;5.83;3.70;;;22.00;99.90;;;;;;4941240;29;20256;-79
2021/06/22 08:04:14;;;;;;;5.20;3.90;;;21.20;99.90;;;;;;4958303;28;20282;-78
2021/06/22 08:06:40;;;;;;;7.70;4.77;;;21.20;99.90;;;;;;4941102;29;20521;-78
2021/06/22 08:09:05;;;;;;;5.10;4.57;;;20.40;99.90;;;;;;4957610;29;20612;-77
2021/06/22 08:11:31;;;;;;;4.43;3.73;;;20.30;99.90;;;;;;4939762;29;20191;-77
2021/06/22 08:13:56;;;;;;;4.50;4.10;;;20.90;99.90;;;;;;4939646;29;20688;-78
2021/06/22 08:16:22;;;;;;;8.17;4.70;;;21.70;99.90;;;;;;4925033;29;20218;-79
2021/06/22 08:18:47;;;;;;;5.20;4.43;;;21.30;99.90;;;;;;4941024;29;20202;-78
2021/06/22 08:21:13;;;;;;;4.60;3.60;;;21.90;99.90;;;;;;4940236;29;20663;-78
2021/06/22 08:23:38;;;;;;;4.93;4.43;;;22.00;99.90;;;;;;4940559;29;20199;-79
2021/06/22 08:26:05;;;;;;;9.30;6.07;;;22.50;99.90;;;;;;4958101;29;20184;-80
2021/06/22 08:28:31;;;;;;;7.97;6.57;;;22.70;99.90;;;;;;4958113;29;20176;-79
2021/06/22 08:30:56;;;;;;;6.00;5.07;;;22.50;99.90;;;;;;4940799;29;20439;-80
2021/06/22 08:33:22;;;;;;;7.20;4.90;;;22.30;99.90;;;;;;4957923;28;20202;-80
2021/06/22 08:35:48;;;;;;;7.03;5.27;;;21.70;99.90;;;;;;4940675;29;20718;-78
2021/06/22 08:38:14;;;;;;;8.60;5.37;;;21.60;99.90;;;;;;4957245;29;20195;-78
2021/06/22 08:40:43;;;;;;;7.27;5.13;;;22.30;99.90;;;;;;4957540;29;20428;-78
2021/06/22 08:43:11;;;;;;;7.67;5.40;;;22.20;99.90;;;;;;4940263;29;20446;-79
2021/06/22 08:45:37;;;;;;;9.40;5.73;;;22.20;99.90;;;;;;4940342;29;20572;-77
2021/06/22 08:48:05;;;;;;;5.07;4.07;;;21.80;99.90;;;;;;4957023;28;20483;-79
2021/06/22 08:50:30;;;;;;;5.40;4.80;;;22.20;99.90;;;;;;4925439;29;20442;-80
2021/06/22 08:52:56;;;;;;;5.53;4.37;;;22.70;99.90;;;;;;4957722;29;20439;-80
2021/06/22 08:55:25;;;;;;;9.73;5.33;;;22.60;99.90;;;;;;4958006;29;20205;-79
2021/06/22 08:57:53;;;;;;;7.93;4.70;;;22.40;99.90;;;;;;4957369;29;20168;-79
2021/06/22 09:00:19;;;;;;;5.97;3.97;;;22.70;99.90;;;;;;4939326;29;20931;-80
2021/06/22 09:02:45;;;;;;;6.47;4.50;;;22.90;99.90;;;;;;4957081;29;20454;-80
2021/06/22 09:05:10;;;;;;;4.73;4.20;;;23.00;99.90;;;;;;4940162;29;20428;-80
2021/06/22 09:07:47;;;;;;;3.90;3.43;;;22.90;99.90;;;;;;4940170;29;20172;-78
2021/06/22 09:10:33;;;;;;;7.60;4.60;;;22.40;99.90;;;;;;4958787;29;20196;-79
2021/06/22 09:13:31;;;;;;;5.93;4.80;;;21.60;99.90;;;;;;4945891;29;20995;-79
2021/06/22 09:15:56;;;;;;;7.47;5.37;;;21.40;99.90;;;;;;4958856;29;21037;-79
2021/06/22 09:18:49;;;;;;;6.60;3.70;;;21.60;99.90;;;;;;4941087;29;20546;-79
2021/06/22 09:21:23;;;;;;;5.03;3.70;;;21.70;99.90;;;;;;4953076;29;20656;-79
2021/06/22 09:23:51;;;;;;;5.80;4.00;;;22.00;99.90;;;;;;4939791;29;20438;-78
2021/06/22 09:26:23;;;;;;;5.67;4.30;;;21.20;99.90;;;;;;4957300;29;20423;-79
2021/06/22 09:28:50;;;;;;;5.47;4.63;;;20.30;99.90;;;;;;4957654;29;20473;-79
2021/06/22 09:31:18;;;;;;;6.07;4.20;;;20.00;99.90;;;;;;4957765;29;20859;-80
2021/06/22 09:33:53;;;;;;;5.07;4.10;;;20.10;99.90;;;;;;4939381;29;20449;-80
2021/06/22 09:36:27;;;;;;;4.80;4.10;;;20.20;99.90;;;;;;4924387;29;20467;-80
2021/06/22 09:38:58;;;;;;;4.93;4.10;;;20.40;99.90;;;;;;4939677;29;20465;-79
2021/06/22 09:41:26;;;;;;;7.00;3.70;;;20.00;99.90;;;;;;4956630;29;20940;-79
2021/06/22 09:44:04;;;;;;;6.10;3.40;;;20.20;99.90;;;;;;4957116;28;20437;-80
2021/06/22 09:46:47;;;;;;;5.83;3.53;;;20.00;99.90;;;;;;4940069;29;20427;-80
2021/06/22 09:49:16;;;;;;;4.00;3.50;;;19.60;99.90;;;;;;4940891;29;20426;-79
2021/06/22 09:51:53;;;;;;;11.63;4.13;;;19.50;99.90;;;;;;4956516;29;20433;-81
2021/06/22 09:54:23;;;;;;;7.23;4.70;;;20.40;99.90;;;;;;4957303;29;20428;-79
2021/06/22 09:57:03;;;;;;;7.10;4.20;;;20.60;99.90;;;;;;4956883;29;20785;-79
2021/06/22 09:59:51;;;;;;;7.37;4.80;;;20.80;99.90;;;;;;4945563;28;20968;-80
2021/06/22 10:02:17;;;;;;;7.10;4.73;;;20.70;99.90;;;;;;4931734;29;20447;-80
2021/06/22 10:04:51;;;;;;;7.67;3.93;;;20.50;99.90;;;;;;4957204;29;20470;-80
2021/06/22 10:07:23;;;;;;;9.50;4.60;;;20.60;99.90;;;;;;4938891;29;20433;-80
2021/06/22 10:09:56;;;;;;;4.87;4.00;;;20.60;99.90;;;;;;4956104;29;20450;-80
2021/06/22 10:12:25;;;;;;;6.03;4.30;;;21.20;99.90;;;;;;4955936;29;20562;-79
2021/06/22 10:14:53;;;;;;;5.57;3.60;;;21.30;99.90;;;;;;4939009;29;20449;-80
2021/06/22 10:17:24;;;;;;;5.30;4.30;;;20.60;99.90;;;;;;4939286;29;20415;-77
2021/06/22 10:19:53;;;;;;;5.53;4.00;;;19.80;99.90;;;;;;4938534;29;20542;-81
2021/06/22 10:22:22;;;;;;;8.63;4.20;;;19.90;99.90;;;;;;4956194;29;20436;-81
2021/06/22 10:24:48;;;;;;;7.60;4.30;;;20.10;99.90;;;;;;4939065;29;20430;-81
2021/06/22 10:27:19;;;;;;;5.93;4.40;;;20.30;99.90;;;;;;4956747;29;20903;-80
2021/06/22 10:29:50;;;;;;;9.83;4.67;;;19.80;99.90;;;;;;4953767;29;20714;-79
2021/06/22 10:32:16;;;;;;;4.73;4.00;;;19.80;99.90;;;;;;4940407;28;20459;-80
2021/06/22 10:34:53;;;;;;;13.00;3.93;;;20.00;99.90;;;;;;4942129;29;20459;-80
2021/06/22 10:37:26;;;;;;;4.87;3.70;;;19.80;99.90;;;;;;4959341;29;20506;-80
2021/06/22 10:40:02;;;;;;;5.50;4.10;;;20.00;99.90;;;;;;4943827;29;20491;-78
2021/06/22 10:42:40;;;;;;;7.00;4.50;;;20.40;99.90;;;;;;4958552;29;20499;-79
2021/06/22 10:45:10;;;;;;;7.20;5.20;;;20.10;99.90;;;;;;4957563;29;20421;-80
2021/06/22 10:47:40;;;;;;;5.93;3.87;;;20.50;99.90;;;;;;4958803;29;20414;-79
2021/06/22 10:50:12;;;;;;;4.00;3.30;;;21.00;99.90;;;;;;4955842;29;20470;-80
2021/06/22 10:52:41;;;;;;;6.10;4.47;;;21.80;99.90;;;;;;4938509;29;20444;-80
2021/06/22 10:55:08;;;;;;;8.20;5.70;;;21.90;99.90;;;;;;4920063;29;20429;-79
2021/06/22 10:57:58;;;;;;;6.80;4.00;;;21.20;99.90;;;;;;4919642;29;20431;-80
2021/06/22 11:00:25;;;;;;;4.20;3.77;;;21.00;99.90;;;;;;4947629;29;20467;-79
2021/06/22 11:03:09;;;;;;;4.80;4.40;;;21.70;99.90;;;;;;4953741;28;20443;-80
2021/06/22 11:05:36;;;;;;;4.87;4.37;;;21.90;99.90;;;;;;4936927;29;20419;-80
2021/06/22 11:08:14;;;;;;;5.10;4.27;;;22.00;99.90;;;;;;4937132;29;20427;-80
2021/06/22 11:10:41;;;;;;;6.53;4.30;;;21.60;99.90;;;;;;4934034;29;20426;-79
2021/06/22 11:13:27;;;;;;;7.07;4.50;;;21.60;99.90;;;;;;4958069;28;20443;-78
2021/06/22 11:15:54;;;;;;;9.47;4.60;;;21.70;99.90;;;;;;4955506;29;20774;-79
2021/06/22 11:18:19;;;;;;;6.63;4.00;;;21.50;99.90;;;;;;4955064;29;20463;-80
2021/06/22 11:20:55;;;;;;;5.63;4.40;;;21.20;99.90;;;;;;4938317;29;20973;-80
2021/06/22 11:23:22;;;;;;;12.20;5.17;;;21.00;99.90;;;;;;4936955;29;20191;-79
2021/06/22 11:25:58;;;;;;;5.03;3.93;;;20.70;99.90;;;;;;4938903;29;20422;-80
2021/06/22 11:28:25;;;;;;;7.77;5.20;;;20.30;99.90;;;;;;4955652;29;20938;-79
2021/06/22 11:31:01;;;;;;;4.80;4.30;;;20.20;99.90;;;;;;4938167;29;20437;-80
2021/06/22 11:33:46;;;;;;;5.90;4.30;;;20.40;99.90;;;;;;4955784;28;20820;-78
2021/06/22 11:36:20;;;;;;;6.27;5.10;;;20.20;99.90;;;;;;4954398;29;20449;-80
2021/06/22 11:39:08;;;;;;;5.77;3.60;;;20.50;99.90;;;;;;4955480;29;20454;-79
2021/06/22 11:41:37;;;;;;;9.43;4.70;;;21.30;99.90;;;;;;4938431;29;20968;-80
2021/06/22 11:44:09;;;;;;;7.63;4.20;;;20.60;99.90;;;;;;4956546;29;20855;-83
2021/06/22 11:46:40;;;;;;;5.50;4.23;;;20.50;99.90;;;;;;4941703;29;20459;-83
2021/06/22 11:49:06;;;;;;;4.63;4.20;;;20.60;99.90;;;;;;4941557;29;21003;-83
2021/06/22 11:51:55;;;;;;;6.90;4.07;;;20.60;99.90;;;;;;4941835;29;20458;-83
2021/06/22 11:54:47;;;;;;;7.33;4.67;;;21.10;99.90;;;;;;4949497;29;20748;-82
2021/06/22 11:57:19;;;;;;;7.60;6.73;;;21.10;99.90;;;;;;4940974;29;20431;-82
2021/06/22 11:59:48;;;;;;;4.57;4.13;;;21.20;99.90;;;;;;4942307;29;20469;-82
2021/06/22 12:02:14;;;;;;;5.77;4.40;;;21.50;99.90;;;;;;4957961;29;20548;-81
2021/06/22 12:04:41;;;;;;;6.40;4.33;;;21.20;99.90;;;;;;4959258;29;20427;-82
2021/06/22 12:07:08;;;;;;;4.93;4.43;;;20.50;99.90;;;;;;4958225;29;20437;-83
2021/06/22 12:09:43;;;;;;;7.30;4.57;;;20.00;99.90;;;;;;4958407;29;20448;-83
2021/06/22 12:12:09;;;;;;;7.50;4.47;;;20.30;99.90;;;;;;4958575;29;20433;-83
2021/06/22 12:14:41;;;;;;;5.90;4.67;;;20.20;99.90;;;;;;4941799;29;20511;-81
2021/06/22 12:17:15;;;;;;;7.47;4.90;;;19.70;99.90;;;;;;4941397;29;20528;-82
2021/06/22 12:19:41;;;;;;;7.07;5.10;;;19.80;99.90;;;;;;4941566;29;20467;-81
2021/06/22 12:22:12;;;;;;;6.43;4.97;;;19.70;99.90;;;;;;4959558;28;20419;-82
2021/06/22 12:24:39;;;;;;;5.90;4.10;;;19.70;99.90;;;;;;4945274;29;20447;-80
2021/06/22 12:27:06;;;;;;;7.87;5.17;;;19.70;99.90;;;;;;4947614;29;20494;-81
2021/06/22 12:29:32;;;;;;;8.40;4.60;;;19.80;99.90;;;;;;4967887;29;20562;-81
2021/06/22 12:32:07;;;;;;;4.37;3.83;;;19.70;99.90;;;;;;4944433;28;20440;-79
2021/06/22 12:34:37;;;;;;;9.53;4.67;;;20.20;99.90;;;;;;4945721;29;20426;-79
2021/06/22 12:37:16;;;;;;;7.43;5.70;;;20.50;99.90;;;;;;4944958;29;20439;-79
2021/06/22 12:39:43;;;;;;;9.00;4.87;;;19.80;99.90;;;;;;4944731;29;20714;-80
2021/06/22 12:42:11;;;;;;;5.97;4.50;;;19.80;99.90;;;;;;4926942;28;20434;-80
2021/06/22 12:44:42;;;;;;;7.37;4.80;;;20.20;99.90;;;;;;4942707;29;20615;-80
2021/06/22 12:47:09;;;;;;;4.93;4.10;;;20.20;99.90;;;;;;4941699;29;20451;-80
2021/06/22 12:49:37;;;;;;;4.50;3.60;;;20.20;99.90;;;;;;4942688;29;20420;-81